Monday, October 16, 2017, 8:15 PM EDT
Back to Local

KAGC, Pittsburgh Allegheny Cty.

Location: West Mifflin, PA, United States Lat: 40.35
Local Time: 8:15 PM EDT ( 0:15 GMT) Lon: -79.917
Time Zone: US/Eastern Elev: 1253 ft

Show me the last for .
Show Decoded

2017-10-16 19:53 METAR KAGC 162353Z 34004KT 10SM CLR 09/01 A3025 RMK AO2 SLP252 T00940006 10139
                 20094 53016 =
2017-10-16 18:53 METAR KAGC 162253Z 32006KT 10SM CLR 11/M01 A3022 RMK AO2 SLP242 T01111006 =
2017-10-16 17:53 METAR KAGC 162153Z VRB05G17KT 10SM CLR 12/M01 A3022 RMK AO2 SLP239 T01221011 =
2017-10-16 16:53 METAR KAGC 162053Z 30008G15KT 260V330 10SM CLR 13/00 A3020 RMK AO2 SLP233
                 T01330000 55001 =
2017-10-16 15:53 METAR KAGC 161953Z 33008G25KT 290V350 10SM CLR 14/M01 A3020 RMK AO2 SLP232
                 T01391011 =
2017-10-16 14:53 METAR KAGC 161853Z 30007G17KT 10SM SCT060 13/02 A3020 RMK AO2 SLP232 T01330017 =
2017-10-16 13:53 METAR KAGC 161753Z 35009G22KT 10SM BKN060 12/01 A3020 RMK AO2 SLP234 60000
                 T01220011 10139 20094 58001 =
2017-10-16 12:53 METAR KAGC 161653Z 31012G19KT 10SM BKN043 OVC055 12/02 A3021 RMK AO2 SLP237
                 T01220022 =
2017-10-16 11:53 METAR KAGC 161553Z 33008G17KT 300V010 10SM SCT035 SCT045 12/03 A3021 RMK AO2
                 SLP236 T01220028 =
2017-10-16 10:53 METAR KAGC 161453Z VRB06G17KT 10SM SCT025 BKN033 OVC048 11/04 A3021 RMK AO2
                 SLP234 60000 T01110044 51018 =
2017-10-16 09:53 METAR KAGC 161353Z 33007KT 10SM FEW019 SCT026 OVC041 10/04 A3019 RMK AO2
                 RAB01E10 SLP229 P0000 T01000044 =
2017-10-16 09:12 METAR KAGC 161312Z 35004KT 10SM FEW018 OVC039 10/06 A3018 RMK AO2 RAB01E10 P0000
                 T01000056 =
2017-10-16 08:53 METAR KAGC 161253Z 36007KT 10SM BKN018 BKN024 OVC037 09/06 A3018 RMK AO2 SLP225
                 T00940056 =
2017-10-16 08:03 METAR KAGC 161203Z VRB03KT 10SM SCT020 BKN025 OVC038 09/06 A3015 RMK AO2
                 T00940061 =
2017-10-16 07:53 METAR KAGC 161153Z 32004KT 10SM FEW019 SCT025 OVC037 09/06 A3015 RMK AO2 SLP215
                 60000 70021 T00890061 10117 20089 51017 =
2017-10-16 07:27 METAR KAGC 161127Z 33004KT 10SM FEW016 BKN026 OVC045 09/06 A3014 RMK AO2
                 T00890061 =
2017-10-16 06:53 METAR KAGC 161053Z 30004KT 10SM FEW019 BKN038 OVC055 09/06 A3014 RMK AO2 SLP209
                 T00890056 =
2017-10-16 05:53 METAR KAGC 160953Z 32006KT 10SM FEW026 SCT035 OVC044 09/05 A3012 RMK AO2 SLP201
                 T00890050 =
2017-10-16 05:19 METAR KAGC 160919Z 34009G19KT 8SM FEW023 SCT028 OVC049 09/05 A3010 RMK AO2
                 T00890050 =
2017-10-16 04:53 METAR KAGC 160853Z 34012G22KT 10SM BKN019 BKN026 OVC046 09/05 A3010 RMK AO2
                 SLP194 60000 T00940050 53016 =
2017-10-16 04:43 METAR KAGC 160843Z 35012G23KT 10SM BKN022 BKN028 OVC045 11/06 A3009 RMK AO2
                 T01060056 =
2017-10-16 03:53 METAR KAGC 160753Z 33006G15KT 10SM BKN040 OVC049 11/06 A3007 RMK AO2 RAE07
                 SLP185 P0000 T01110056 =
2017-10-16 03:20 METAR KAGC 160720Z 33007G20KT 10SM SCT021 OVC031 11/06 A3007 RMK AO2 RAE07 P0000
                 T01110056 =
2017-10-16 02:53 METAR KAGC 160653Z 36008G16KT 10SM -RA BKN021 BKN030 OVC037 12/07 A3006 RMK AO2
                 RAB53 SLP181 P0000 T01170072 =
2017-10-16 01:53 METAR KAGC 160553Z 29006KT 10SM FEW027 OVC050 12/08 A3005 RMK AO2 SLP175
                 T01220078 10161 20122 51019 =
2017-10-16 01:07 METAR KAGC 160507Z 30007KT 270V330 10SM SCT025 BKN033 OVC043 12/08 A3004 RMK AO2
                 T01220078 =
2017-10-16 00:53 METAR KAGC 160453Z 28007KT 10SM BKN024 OVC031 13/08 A3003 RMK AO2 SLP170
                 T01280078 402610128 =
2017-10-16 00:05 METAR KAGC 160405Z 10SM BKN027 13/08 A3002 RMK AO2 T01280078 =
2017-10-15 23:53 METAR KAGC 160353Z 28008G18KT 10SM SCT028 13/08 A3001 RMK AO2 SLP163 T01280078 =
2017-10-15 22:53 METAR KAGC 160253Z 33010G19KT 10SM BKN095 14/08 A2999 RMK AO2 PK WND 33027/0214
                 SLP155 T01390078 51027 =
2017-10-15 21:53 METAR KAGC 160153Z 31010G17KT 10SM FEW025 BKN039 OVC110 15/11 A2998 RMK AO2
                 SLP151 T01500106 =
2017-10-15 21:19 METAR KAGC 160119Z 29006KT 10SM SCT022 BKN031 OVC120 16/12 A2995 RMK AO2
                 T01560117 =
2017-10-15 21:12 METAR KAGC 160112Z 30005KT 10SM FEW020 BKN025 OVC120 16/12 A2995 RMK AO2
                 T01560117 =
2017-10-15 20:53 METAR KAGC 160053Z 31009G16KT 10SM SCT023 BKN031 OVC085 16/12 A2994 RMK AO2
                 SLP138 T01560117 =

Support USWX by starting your Amazon purchase here.